Time;durP1;ratioP1;P1;durP2;ratioP2;P2;SDS_P1;SDS_P2;PMS_P1;PMS_P2;Temp;Humidity;BMP_temperature;BMP_pressure;BME280_temperature;BME280_humidity;BME280_pressure;Samples;Min_cycle;Max_cycle;Signal;HPM_P1;HPM_P2
2022/06/01 00:00:58;;;;;;;42.07;31.80;;;11.10;99.90;;;;;;5047982;28;20448;-78
2022/06/01 00:03:24;;;;;;;42.25;31.23;;;11.10;99.90;;;;;;5066637;28;20397;-80
2022/06/01 00:05:53;;;;;;;41.65;30.52;;;11.10;99.90;;;;;;5066257;28;20420;-79
2022/06/01 00:08:23;;;;;;;41.08;29.52;;;11.10;99.90;;;;;;5063099;28;20401;-79
2022/06/01 00:10:49;;;;;;;46.00;32.35;;;11.00;99.90;;;;;;5045906;28;20428;-79
2022/06/01 00:13:15;;;;;;;43.67;30.88;;;10.90;99.90;;;;;;5046852;28;20424;-81
2022/06/01 00:15:41;;;;;;;43.97;31.60;;;10.80;99.90;;;;;;5063603;28;20397;-79
2022/06/01 00:18:08;;;;;;;41.40;30.07;;;10.80;99.90;;;;;;5064338;28;20465;-79
2022/06/01 00:20:35;;;;;;;38.63;29.10;;;10.80;99.90;;;;;;5060688;28;20401;-80
2022/06/01 00:23:01;;;;;;;38.45;29.25;;;10.80;99.90;;;;;;5046193;28;20460;-79
2022/06/01 00:25:27;;;;;;;51.67;35.75;;;10.70;99.90;;;;;;5062932;28;20408;-80
2022/06/01 00:27:53;;;;;;;43.13;30.13;;;10.70;99.90;;;;;;5064160;28;20413;-80
2022/06/01 00:30:20;;;;;;;48.45;32.10;;;10.70;99.90;;;;;;5068408;28;20472;-79
2022/06/01 00:32:46;;;;;;;49.72;32.28;;;10.70;99.90;;;;;;5069221;28;20389;-81
2022/06/01 00:35:14;;;;;;;46.67;33.10;;;10.70;99.90;;;;;;5072332;28;20420;-81
2022/06/01 00:37:43;;;;;;;48.50;34.53;;;10.80;99.90;;;;;;5066508;28;20416;-82
2022/06/01 00:40:11;;;;;;;43.70;32.53;;;10.70;99.90;;;;;;5034527;28;20793;-81
2022/06/01 00:42:39;;;;;;;42.15;31.85;;;10.60;99.90;;;;;;5060738;28;20420;-82
2022/06/01 00:45:10;;;;;;;45.10;32.17;;;10.60;99.90;;;;;;5063580;28;20409;-82
2022/06/01 00:47:39;;;;;;;48.70;34.08;;;10.50;99.90;;;;;;5063458;28;20408;-83
2022/06/01 00:50:27;;;;;;;47.63;31.70;;;10.40;99.90;;;;;;5058834;28;20408;-82
2022/06/01 00:53:02;;;;;;;49.78;33.65;;;10.50;99.90;;;;;;5061930;28;20417;-81
2022/06/01 00:55:35;;;;;;;45.58;32.10;;;10.40;99.90;;;;;;5061082;28;20405;-82
2022/06/01 00:58:12;;;;;;;45.20;31.55;;;10.40;99.90;;;;;;5070161;28;20397;-81
2022/06/01 01:00:41;;;;;;;43.13;29.80;;;10.40;99.90;;;;;;5067089;28;20475;-82
2022/06/01 01:03:11;;;;;;;40.87;28.17;;;10.40;99.90;;;;;;5071622;28;20398;-81
2022/06/01 01:05:47;;;;;;;40.58;29.42;;;10.50;99.90;;;;;;5071976;28;20404;-82
2022/06/01 01:08:15;;;;;;;40.92;28.70;;;10.50;99.90;;;;;;5070882;28;20469;-81
2022/06/01 01:10:41;;;;;;;41.95;29.85;;;10.50;99.90;;;;;;5051313;28;20412;-81
2022/06/01 01:13:10;;;;;;;39.77;27.07;;;10.50;99.90;;;;;;5071812;28;20405;-81
2022/06/01 01:15:40;;;;;;;33.10;25.65;;;10.50;99.90;;;;;;5067345;28;21073;-80
2022/06/01 01:18:13;;;;;;;33.55;24.05;;;10.50;99.90;;;;;;5066734;28;20401;-80
2022/06/01 01:21:12;;;;;;;28.45;22.50;;;10.40;99.90;;;;;;5070013;28;20401;-80
2022/06/01 01:24:01;;;;;;;32.23;23.27;;;10.30;99.90;;;;;;5068445;28;20434;-81
2022/06/01 01:26:28;;;;;;;36.05;26.40;;;10.20;99.90;;;;;;5059240;28;20417;-81
2022/06/01 01:28:54;;;;;;;32.90;24.90;;;10.20;99.90;;;;;;5060848;28;20457;-81
2022/06/01 01:31:23;;;;;;;30.90;24.02;;;10.20;99.90;;;;;;5063390;28;21095;-81
2022/06/01 01:33:50;;;;;;;34.60;24.02;;;10.10;99.90;;;;;;5064898;28;20889;-80
2022/06/01 01:36:20;;;;;;;35.50;25.83;;;10.10;99.90;;;;;;5066213;28;20411;-81
2022/06/01 01:38:49;;;;;;;33.25;23.98;;;10.00;99.90;;;;;;5063016;28;20430;-80
2022/06/01 01:41:28;;;;;;;30.43;24.37;;;10.00;99.90;;;;;;5061243;28;20397;-80
2022/06/01 01:44:01;;;;;;;33.30;25.00;;;10.00;99.90;;;;;;5063760;28;20475;-81
2022/06/01 01:46:29;;;;;;;35.30;24.65;;;10.00;99.90;;;;;;5062875;28;20413;-81
2022/06/01 01:48:54;;;;;;;38.72;27.90;;;10.00;99.90;;;;;;5063970;28;20885;-81
2022/06/01 01:51:23;;;;;;;39.10;26.67;;;10.00;99.90;;;;;;5063805;28;20413;-80
2022/06/01 01:53:50;;;;;;;38.40;27.30;;;10.00;99.90;;;;;;5061201;28;20416;-80
2022/06/01 01:56:46;;;;;;;35.75;26.27;;;10.10;99.90;;;;;;5058215;28;20393;-81
2022/06/01 01:59:31;;;;;;;35.40;27.10;;;10.10;99.90;;;;;;5042510;28;20415;-81
2022/06/01 02:02:12;;;;;;;40.60;28.23;;;10.00;99.90;;;;;;5063527;28;20814;-80
2022/06/01 02:07:38;;;;;;;41.95;28.27;;;9.90;99.90;;;;;;5063922;28;20435;-80
2022/06/01 02:12:49;;;;;;;40.95;30.40;;;9.90;99.90;;;;;;5070656;28;20470;-80
2022/06/01 02:15:30;;;;;;;41.03;30.10;;;9.80;99.90;;;;;;5064888;28;20432;-77
2022/06/01 02:18:02;;;;;;;42.08;29.63;;;9.90;99.90;;;;;;5063840;28;20439;-79
2022/06/01 02:20:52;;;;;;;40.05;28.70;;;9.90;99.90;;;;;;5072169;28;20381;-79
2022/06/01 02:23:19;;;;;;;39.88;29.33;;;9.80;99.90;;;;;;5064004;28;20410;-77
2022/06/01 02:25:48;;;;;;;41.40;29.15;;;9.80;99.90;;;;;;5070571;28;20405;-78
2022/06/01 02:28:15;;;;;;;42.55;30.85;;;9.80;99.90;;;;;;5049265;28;20768;-77
2022/06/01 02:30:42;;;;;;;40.50;29.52;;;9.80;99.90;;;;;;5062627;28;20374;-78
2022/06/01 02:33:20;;;;;;;42.58;29.23;;;9.70;99.90;;;;;;5070336;28;20405;-79
2022/06/01 02:35:50;;;;;;;43.20;29.75;;;9.70;99.90;;;;;;5049769;28;20393;-83
2022/06/01 02:38:22;;;;;;;39.85;28.75;;;9.70;99.90;;;;;;5062794;28;20406;-79
2022/06/01 02:40:48;;;;;;;36.17;27.75;;;9.70;99.90;;;;;;5066112;28;20389;-78
2022/06/01 02:43:14;;;;;;;39.93;28.70;;;9.70;99.90;;;;;;5070887;28;20396;-77
2022/06/01 02:45:42;;;;;;;40.53;27.88;;;9.60;99.90;;;;;;5065805;28;20472;-77
2022/06/01 02:48:09;;;;;;;36.72;25.88;;;9.60;99.90;;;;;;5061407;28;20463;-78
2022/06/01 02:50:36;;;;;;;36.63;26.70;;;9.70;99.90;;;;;;5044232;28;20496;-77
2022/06/01 02:53:02;;;;;;;38.58;27.30;;;9.70;99.90;;;;;;5061638;28;20397;-78
2022/06/01 02:55:29;;;;;;;34.33;25.10;;;9.90;99.90;;;;;;5064763;28;20378;-78
2022/06/01 02:57:55;;;;;;;38.42;26.30;;;9.70;99.90;;;;;;5058817;28;20399;-78
2022/06/01 03:00:37;;;;;;;36.47;27.05;;;9.60;99.90;;;;;;5059316;28;20381;-78
2022/06/01 03:03:05;;;;;;;35.30;26.63;;;9.60;99.90;;;;;;5058878;28;20377;-77
2022/06/01 03:05:34;;;;;;;39.90;28.02;;;9.60;99.90;;;;;;5055405;28;20460;-77
2022/06/01 03:08:00;;;;;;;42.15;27.15;;;9.60;99.90;;;;;;5055133;28;20437;-77
2022/06/01 03:10:26;;;;;;;34.33;25.80;;;9.70;99.90;;;;;;5054979;28;20736;-77
2022/06/01 03:12:53;;;;;;;37.13;26.50;;;9.70;99.90;;;;;;5054545;28;20401;-77
2022/06/01 03:15:21;;;;;;;33.58;24.90;;;9.70;99.90;;;;;;5054907;28;20385;-77
2022/06/01 03:17:47;;;;;;;37.33;26.05;;;9.70;99.90;;;;;;5050697;28;20415;-77
2022/06/01 03:20:15;;;;;;;37.77;24.80;;;9.70;99.90;;;;;;5050974;28;20412;-77
2022/06/01 03:22:41;;;;;;;31.25;23.02;;;9.70;99.90;;;;;;5036658;28;20482;-77
2022/06/01 03:25:14;;;;;;;30.05;23.42;;;9.80;99.90;;;;;;5054622;28;20672;-77
2022/06/01 03:27:40;;;;;;;34.80;23.13;;;9.80;99.90;;;;;;5040715;28;20519;-77
2022/06/01 03:30:10;;;;;;;33.78;23.45;;;9.80;99.90;;;;;;5066828;28;20385;-77
2022/06/01 03:32:36;;;;;;;31.52;23.58;;;9.60;99.90;;;;;;5064854;28;20437;-76
2022/06/01 03:35:02;;;;;;;31.90;22.63;;;9.60;99.90;;;;;;5061485;28;20393;-77
2022/06/01 03:37:28;;;;;;;29.63;20.65;;;9.70;99.90;;;;;;5052816;28;20459;-77
2022/06/01 03:39:53;;;;;;;31.20;19.93;;;9.60;99.90;;;;;;5049304;28;20773;-77
2022/06/01 03:42:19;;;;;;;28.57;17.70;;;9.80;99.90;;;;;;5057289;28;20724;-78
2022/06/01 03:47:29;;;;;;;21.45;15.57;;;10.00;99.90;;;;;;5054407;28;20400;-78
2022/06/01 03:49:54;;;;;;;25.60;15.32;;;10.10;99.90;;;;;;5055389;28;20765;-77
2022/06/01 03:52:20;;;;;;;22.33;15.75;;;10.20;99.90;;;;;;5055152;28;20436;-77
2022/06/01 03:54:46;;;;;;;22.60;15.10;;;10.30;99.90;;;;;;5055631;28;20855;-78
2022/06/01 03:57:12;;;;;;;18.45;13.52;;;10.40;99.90;;;;;;5056307;28;20377;-78
2022/06/01 03:59:38;;;;;;;19.35;13.55;;;10.60;99.90;;;;;;5047948;28;20389;-77
2022/06/01 04:02:06;;;;;;;20.30;13.35;;;10.70;99.90;;;;;;5055328;28;20758;-77
2022/06/01 04:04:32;;;;;;;19.70;13.32;;;10.80;99.90;;;;;;5055806;28;20948;-76
2022/06/01 04:06:58;;;;;;;17.15;13.52;;;10.80;97.40;;;;;;5054685;28;20386;-77
2022/06/01 04:09:24;;;;;;;18.33;12.93;;;10.80;99.60;;;;;;5053615;28;20423;-80
2022/06/01 04:11:51;;;;;;;21.75;13.40;;;10.90;93.40;;;;;;5055209;28;20469;-76
2022/06/01 04:14:20;;;;;;;19.40;12.40;;;10.90;90.30;;;;;;5055796;28;20381;-76
2022/06/01 04:16:47;;;;;;;16.40;12.65;;;10.80;88.90;;;;;;5055714;28;20786;-76
2022/06/01 04:19:13;;;;;;;19.63;13.10;;;10.80;90.40;;;;;;5046094;28;20951;-75
2022/06/01 04:21:40;;;;;;;16.67;13.43;;;10.80;89.90;;;;;;5057061;28;20381;-78
2022/06/01 04:24:12;;;;;;;18.10;12.30;;;10.80;91.70;;;;;;5060697;28;20393;-77
2022/06/01 04:26:38;;;;;;;22.95;12.73;;;10.90;87.10;;;;;;5057971;28;20458;-77
2022/06/01 04:29:03;;;;;;;20.67;13.03;;;11.00;84.90;;;;;;5055731;28;20401;-77
2022/06/01 04:31:29;;;;;;;17.00;12.80;;;11.00;83.40;;;;;;5055958;28;20385;-78
2022/06/01 04:33:55;;;;;;;17.80;12.90;;;10.90;85.70;;;;;;5036520;28;20404;-78
2022/06/01 04:36:21;;;;;;;20.00;13.35;;;11.00;86.70;;;;;;5054515;28;20402;-80
2022/06/01 04:38:47;;;;;;;25.25;14.52;;;10.90;87.20;;;;;;5045275;28;20390;-76
2022/06/01 04:41:12;;;;;;;23.65;14.60;;;10.90;87.90;;;;;;5054694;28;20386;-76
2022/06/01 04:43:38;;;;;;;20.92;14.50;;;11.00;85.10;;;;;;5055024;28;20396;-77
2022/06/01 04:46:04;;;;;;;23.87;14.90;;;11.00;84.80;;;;;;5059358;28;20494;-78
2022/06/01 04:48:29;;;;;;;21.93;14.87;;;11.00;83.90;;;;;;5059073;28;20434;-79
2022/06/01 04:50:56;;;;;;;21.20;14.27;;;11.00;83.10;;;;;;5062697;28;20813;-77
2022/06/01 04:53:22;;;;;;;20.70;14.00;;;11.10;80.40;;;;;;5038011;28;20525;-77
2022/06/01 04:55:48;;;;;;;23.63;14.00;;;11.20;77.90;;;;;;5058953;28;20385;-77
2022/06/01 04:58:14;;;;;;;23.08;14.77;;;11.20;77.70;;;;;;5033391;28;20807;-76
2022/06/01 05:00:41;;;;;;;21.77;14.65;;;11.20;77.80;;;;;;5053306;28;20455;-76
2022/06/01 05:03:08;;;;;;;25.02;14.23;;;11.20;79.20;;;;;;5054964;28;20385;-76
2022/06/01 05:05:39;;;;;;;23.92;14.05;;;11.20;79.00;;;;;;5037006;28;20397;-79
2022/06/01 05:08:05;;;;;;;19.10;13.07;;;11.30;77.50;;;;;;5056490;28;20890;-77
2022/06/01 05:10:31;;;;;;;18.42;12.77;;;11.40;73.20;;;;;;5058347;28;20377;-77
2022/06/01 05:12:57;;;;;;;21.90;13.10;;;11.40;72.00;;;;;;5056288;28;20423;-77
2022/06/01 05:15:22;;;;;;;19.60;12.00;;;11.60;70.20;;;;;;5055298;28;20750;-77
2022/06/01 05:17:48;;;;;;;17.93;12.30;;;11.80;65.30;;;;;;5049604;28;20383;-76
2022/06/01 05:20:13;;;;;;;15.80;11.80;;;11.90;63.00;;;;;;5050048;28;20456;-76
2022/06/01 05:22:39;;;;;;;19.10;11.17;;;12.10;61.70;;;;;;5053300;28;20460;-76
2022/06/01 05:25:06;;;;;;;24.33;11.30;;;12.10;60.60;;;;;;5056680;28;20385;-78
2022/06/01 05:27:32;;;;;;;18.30;10.73;;;12.00;60.40;;;;;;5053557;28;20397;-77
2022/06/01 05:29:57;;;;;;;18.20;11.53;;;11.80;61.70;;;;;;5054794;28;20405;-77
2022/06/01 05:32:23;;;;;;;17.23;11.60;;;11.70;62.10;;;;;;5054725;28;20451;-77
2022/06/01 05:34:49;;;;;;;14.83;10.43;;;11.70;63.80;;;;;;5056102;28;20386;-77
2022/06/01 05:37:14;;;;;;;17.90;10.90;;;11.80;59.80;;;;;;5052726;28;20406;-77
2022/06/01 05:39:40;;;;;;;14.07;10.93;;;11.90;60.00;;;;;;5044605;28;20389;-77
2022/06/01 05:42:06;;;;;;;21.03;12.07;;;11.90;61.90;;;;;;5052264;28;20381;-75
2022/06/01 05:44:32;;;;;;;20.63;11.30;;;11.90;59.90;;;;;;5051491;28;20762;-75
2022/06/01 05:46:59;;;;;;;15.75;10.80;;;12.00;60.00;;;;;;5057051;28;20382;-78
2022/06/01 05:49:25;;;;;;;17.08;10.40;;;12.00;57.80;;;;;;5067569;28;20396;-78
2022/06/01 05:51:50;;;;;;;17.70;10.70;;;12.00;57.40;;;;;;5051597;28;20392;-77
2022/06/01 05:54:16;;;;;;;17.33;11.23;;;12.20;58.30;;;;;;5049546;28;20410;-78
2022/06/01 05:56:42;;;;;;;20.50;11.90;;;12.20;58.60;;;;;;5068099;28;20390;-78
2022/06/01 05:59:08;;;;;;;17.88;11.23;;;12.20;59.80;;;;;;5054704;28;20402;-76
2022/06/01 06:01:33;;;;;;;20.60;11.00;;;12.30;59.00;;;;;;5055667;28;20759;-77
2022/06/01 06:03:59;;;;;;;19.80;12.30;;;12.40;55.60;;;;;;5060239;28;20444;-74
2022/06/01 06:06:25;;;;;;;16.10;10.70;;;12.40;57.90;;;;;;5063639;28;20870;-77
2022/06/01 06:08:59;;;;;;;15.13;10.00;;;12.50;55.50;;;;;;5063343;28;20508;-78
2022/06/01 06:11:26;;;;;;;15.65;10.75;;;12.60;55.90;;;;;;5062377;28;20389;-76
2022/06/01 06:13:52;;;;;;;14.65;10.60;;;12.70;56.60;;;;;;5054714;28;20409;-77
2022/06/01 06:16:18;;;;;;;18.85;11.32;;;12.80;53.00;;;;;;5055203;28;20404;-77
2022/06/01 06:18:44;;;;;;;17.48;10.77;;;12.90;53.50;;;;;;5062668;28;20391;-79
2022/06/01 06:21:11;;;;;;;21.08;11.02;;;12.90;53.50;;;;;;5055174;28;20389;-77
2022/06/01 06:23:37;;;;;;;24.53;11.13;;;12.90;52.30;;;;;;5054883;28;20398;-77
2022/06/01 06:26:03;;;;;;;17.90;10.30;;;13.00;51.90;;;;;;5052940;28;20441;-75
2022/06/01 06:28:30;;;;;;;21.02;11.85;;;13.00;51.60;;;;;;5051731;28;20389;-75
2022/06/01 06:30:56;;;;;;;20.38;11.60;;;13.10;51.20;;;;;;5052017;28;20913;-74
2022/06/01 06:33:22;;;;;;;19.30;11.18;;;13.30;50.30;;;;;;5051624;28;20495;-74
2022/06/01 06:36:06;;;;;;;15.45;9.80;;;13.40;50.10;;;;;;5051606;28;20386;-75
2022/06/01 06:38:35;;;;;;;22.60;11.25;;;13.40;48.90;;;;;;5051267;28;20401;-76
2022/06/01 06:41:01;;;;;;;21.90;10.32;;;13.50;49.30;;;;;;5051444;28;20388;-74
2022/06/01 06:43:28;;;;;;;16.08;9.70;;;13.60;48.10;;;;;;5051290;28;20389;-74
2022/06/01 06:46:07;;;;;;;15.30;9.38;;;13.60;47.50;;;;;;5051366;28;20385;-76
2022/06/01 06:48:32;;;;;;;20.80;8.80;;;13.70;48.10;;;;;;5051862;28;20459;-76
2022/06/01 06:50:58;;;;;;;16.43;8.37;;;13.80;45.70;;;;;;5051345;28;20474;-75
2022/06/01 06:53:24;;;;;;;13.07;8.40;;;13.80;46.40;;;;;;5051294;28;20401;-75
2022/06/01 06:55:50;;;;;;;14.82;8.70;;;14.00;46.00;;;;;;5051106;28;20432;-75
2022/06/01 06:58:16;;;;;;;13.48;9.00;;;14.10;45.20;;;;;;5051366;28;20476;-75
2022/06/01 07:00:42;;;;;;;15.05;8.25;;;14.10;44.80;;;;;;5051080;28;20413;-76
2022/06/01 07:03:07;;;;;;;15.35;8.75;;;14.20;44.60;;;;;;5050637;28;20413;-75
2022/06/01 07:08:18;;;;;;;11.90;6.82;;;14.50;40.20;;;;;;5032436;28;20526;-75
2022/06/01 07:10:44;;;;;;;14.05;6.40;;;14.50;39.90;;;;;;5034369;28;20387;-76
2022/06/01 07:13:10;;;;;;;15.60;7.10;;;14.50;40.80;;;;;;5034477;28;20415;-76
2022/06/01 07:15:35;;;;;;;15.50;6.87;;;14.60;39.70;;;;;;5034571;28;20458;-75
2022/06/01 07:18:05;;;;;;;13.63;6.60;;;14.70;39.90;;;;;;5034250;28;20383;-75
2022/06/01 07:20:31;;;;;;;8.70;4.88;;;14.90;39.20;;;;;;5034047;28;20389;-75
2022/06/01 07:22:57;;;;;;;14.05;5.55;;;15.20;35.50;;;;;;5034953;28;20418;-76
2022/06/01 07:25:24;;;;;;;8.07;4.82;;;15.20;36.40;;;;;;5043938;28;20469;-75
2022/06/01 07:27:50;;;;;;;7.82;3.53;;;15.10;36.70;;;;;;5056376;28;20463;-75
2022/06/01 07:30:16;;;;;;;5.73;3.57;;;15.40;33.60;;;;;;5054639;28;20382;-74
2022/06/01 07:32:49;;;;;;;9.00;4.80;;;15.60;33.70;;;;;;5054236;28;20447;-74
2022/06/01 07:35:16;;;;;;;5.00;4.20;;;15.50;33.10;;;;;;5053647;28;20409;-76
2022/06/01 07:43:12;;;;;;;9.57;5.00;;;15.60;33.90;;;;;;5054144;28;20455;-74
2022/06/01 07:45:44;;;;;;;6.28;4.85;;;15.80;31.70;;;;;;5053846;28;20469;-74
2022/06/01 07:48:10;;;;;;;8.55;4.80;;;15.80;30.70;;;;;;5036485;28;20538;-75
2022/06/01 07:50:37;;;;;;;10.07;4.95;;;15.70;29.80;;;;;;5035440;28;20393;-75
2022/06/01 07:53:06;;;;;;;9.75;5.82;;;15.70;31.00;;;;;;5053385;28;20943;-75
2022/06/01 07:55:31;;;;;;;8.37;5.30;;;15.80;31.40;;;;;;5053181;28;20442;-74
2022/06/01 07:57:57;;;;;;;7.67;5.20;;;16.00;31.00;;;;;;5053734;28;20754;-76
2022/06/01 08:00:23;;;;;;;7.70;5.00;;;15.90;30.30;;;;;;5053340;28;20389;-74
2022/06/01 08:02:49;;;;;;;8.80;4.93;;;15.90;29.30;;;;;;5051671;28;20874;-75
2022/06/01 08:05:18;;;;;;;7.30;4.50;;;15.90;29.60;;;;;;5052916;28;20401;-74
2022/06/01 08:07:44;;;;;;;8.68;4.38;;;16.10;28.50;;;;;;5043338;28;20390;-74
2022/06/01 08:10:13;;;;;;;9.10;5.50;;;16.00;28.40;;;;;;5052594;28;20393;-75
2022/06/01 08:15:23;;;;;;;7.95;5.20;;;16.00;29.00;;;;;;5052441;28;20385;-75
2022/06/01 08:17:49;;;;;;;10.85;5.80;;;16.20;28.00;;;;;;5052891;28;20843;-73
2022/06/01 08:20:16;;;;;;;8.80;5.60;;;16.40;27.30;;;;;;5052380;28;20823;-72
2022/06/01 08:22:42;;;;;;;9.63;5.28;;;16.50;27.50;;;;;;5052431;28;20382;-73
2022/06/01 08:25:10;;;;;;;8.15;5.20;;;16.60;28.40;;;;;;5035149;28;20502;-75
2022/06/01 08:27:36;;;;;;;8.85;5.00;;;16.60;27.90;;;;;;5050453;28;20886;-73
2022/06/01 08:30:02;;;;;;;7.20;5.37;;;16.70;27.40;;;;;;5045289;28;20412;-74
2022/06/01 08:32:27;;;;;;;7.45;3.85;;;16.80;28.40;;;;;;5042237;28;20858;-73
2022/06/01 08:34:53;;;;;;;4.22;3.75;;;16.80;25.20;;;;;;5029093;28;20544;-76
2022/06/01 08:37:19;;;;;;;9.93;4.30;;;16.70;25.80;;;;;;5041052;28;20415;-76
2022/06/01 08:39:44;;;;;;;8.17;4.10;;;16.90;24.90;;;;;;5026556;28;20499;-76
2022/06/01 08:42:16;;;;;;;9.38;4.30;;;17.20;24.70;;;;;;5046117;28;20469;-76
2022/06/01 08:44:44;;;;;;;9.70;4.38;;;17.40;24.90;;;;;;5049407;28;20485;-75
2022/06/01 08:47:27;;;;;;;9.70;5.05;;;17.60;24.10;;;;;;5044676;28;20407;-76
2022/06/01 08:49:56;;;;;;;10.40;5.05;;;17.80;24.60;;;;;;5041026;28;20401;-75
2022/06/01 08:52:24;;;;;;;5.68;4.05;;;18.10;24.40;;;;;;5043992;28;20467;-76
2022/06/01 08:54:49;;;;;;;5.33;3.13;;;18.00;21.10;;;;;;5044412;28;20512;-76
2022/06/01 08:57:24;;;;;;;7.17;4.10;;;17.80;21.00;;;;;;5047828;28;20405;-76
2022/06/01 09:00:01;;;;;;;6.90;3.70;;;17.80;21.80;;;;;;5042703;28;20396;-76
2022/06/01 09:02:48;;;;;;;8.32;4.63;;;17.90;22.90;;;;;;5043633;28;20403;-77
2022/06/01 09:05:21;;;;;;;6.28;4.25;;;18.10;22.70;;;;;;5049111;28;20758;-76
2022/06/01 09:08:18;;;;;;;8.10;4.55;;;18.20;20.90;;;;;;5045082;28;20908;-76
2022/06/01 09:10:56;;;;;;;7.63;3.97;;;18.10;21.60;;;;;;5047507;28;20488;-76
2022/06/01 09:13:25;;;;;;;8.07;3.85;;;18.00;21.80;;;;;;5038754;28;20411;-77
2022/06/01 09:16:15;;;;;;;5.78;3.90;;;18.10;21.90;;;;;;5053586;28;20385;-76
2022/06/01 09:18:51;;;;;;;7.83;3.50;;;18.70;20.00;;;;;;5050980;28;20450;-76
2022/06/01 09:24:20;;;;;;;5.65;3.60;;;19.10;18.60;;;;;;5043949;28;20404;-75
2022/06/01 09:27:08;;;;;;;8.65;3.60;;;19.20;17.40;;;;;;5047813;28;20401;-75
2022/06/01 09:29:42;;;;;;;11.07;3.70;;;19.40;17.60;;;;;;5045765;28;20941;-76
2022/06/01 09:32:25;;;;;;;7.55;3.50;;;19.70;17.90;;;;;;5041646;28;20436;-76
2022/06/01 09:34:51;;;;;;;5.13;2.95;;;19.90;15.40;;;;;;5043124;28;20394;-76
2022/06/01 09:37:24;;;;;;;4.40;3.30;;;19.70;15.50;;;;;;5041118;28;20409;-76
2022/06/01 09:39:56;;;;;;;5.28;2.90;;;19.60;15.40;;;;;;5042524;28;20806;-75
2022/06/01 09:42:35;;;;;;;8.18;3.22;;;19.30;16.20;;;;;;5040751;28;20952;-75
2022/06/01 09:45:04;;;;;;;7.15;4.07;;;19.20;17.20;;;;;;5041346;28;20935;-75
2022/06/01 09:47:43;;;;;;;6.45;3.97;;;18.90;18.10;;;;;;5041757;28;20397;-75
2022/06/01 09:50:29;;;;;;;7.40;3.50;;;18.80;18.30;;;;;;5048922;28;20539;-75
2022/06/01 09:53:12;;;;;;;5.63;3.85;;;18.70;17.40;;;;;;5047634;28;20501;-77
2022/06/01 09:55:54;;;;;;;7.03;3.50;;;18.80;17.70;;;;;;5048105;28;20413;-74
2022/06/01 10:07:38;;;;;;;3.63;2.80;;;20.40;16.20;;;;;;5046545;28;20534;-72
2022/06/01 10:10:05;;;;;;;3.35;3.05;;;20.40;13.00;;;;;;5029046;28;20494;-73
2022/06/01 10:12:34;;;;;;;5.78;3.28;;;20.30;13.80;;;;;;5047598;28;20420;-72
2022/06/01 10:15:02;;;;;;;6.30;3.50;;;20.20;14.40;;;;;;5050036;28;20866;-73
2022/06/01 10:17:36;;;;;;;6.22;3.45;;;19.80;15.80;;;;;;5032898;28;20385;-73
2022/06/01 10:20:13;;;;;;;3.97;3.53;;;19.70;15.30;;;;;;5033915;28;20393;-74
2022/06/01 10:22:51;;;;;;;3.85;3.35;;;19.60;15.10;;;;;;5051519;28;20405;-74
2022/06/01 10:25:49;;;;;;;3.78;2.60;;;19.90;14.40;;;;;;5055092;28;20386;-73
2022/06/01 10:28:33;;;;;;;5.93;3.42;;;19.90;14.40;;;;;;5003616;28;20480;-74
2022/06/01 10:31:03;;;;;;;6.70;3.40;;;20.00;14.50;;;;;;5056235;28;20390;-74
2022/06/01 10:33:43;;;;;;;7.18;2.90;;;20.00;13.80;;;;;;5051782;28;20429;-75
2022/06/01 10:36:30;;;;;;;5.57;3.10;;;20.00;13.90;;;;;;5052262;28;20402;-73
2022/06/01 10:39:16;;;;;;;6.22;3.10;;;20.00;14.30;;;;;;5050914;28;20893;-74
2022/06/01 10:41:58;;;;;;;5.53;3.50;;;19.80;15.20;;;;;;5044003;28;20862;-74
2022/06/01 10:44:44;;;;;;;7.32;3.20;;;19.40;14.90;;;;;;5053634;28;20770;-74
2022/06/01 10:47:13;;;;;;;4.28;2.95;;;19.20;15.10;;;;;;5053241;28;20462;-73
2022/06/01 10:49:59;;;;;;;5.47;3.03;;;19.20;15.40;;;;;;5035426;28;20545;-73
2022/06/01 10:52:25;;;;;;;6.60;2.80;;;19.30;14.70;;;;;;5053110;28;20941;-73
2022/06/01 10:55:03;;;;;;;7.43;3.07;;;19.40;15.50;;;;;;5054166;28;20396;-74
2022/06/01 10:57:29;;;;;;;6.50;3.30;;;19.40;15.00;;;;;;5052754;28;20430;-74
2022/06/01 10:59:55;;;;;;;5.63;3.40;;;19.50;14.70;;;;;;5052978;28;20404;-73
2022/06/01 11:02:40;;;;;;;7.87;3.10;;;19.60;14.50;;;;;;5052245;28;20469;-72
2022/06/01 11:05:34;;;;;;;7.13;3.28;;;20.00;15.00;;;;;;5052074;28;20411;-73
2022/06/01 11:08:15;;;;;;;6.15;2.97;;;20.50;13.60;;;;;;5052083;28;20397;-73
2022/06/01 11:10:57;;;;;;;5.22;3.00;;;20.90;12.80;;;;;;5033387;28;20486;-73
2022/06/01 11:14:14;;;;;;;6.60;4.10;;;21.40;11.50;;;;;;5052840;28;20455;-74
2022/06/01 11:17:01;;;;;;;6.10;3.10;;;21.60;10.70;;;;;;4998030;28;20401;-72
2022/06/01 11:19:27;;;;;;;6.47;2.83;;;21.30;12.00;;;;;;5051913;28;20446;-74
2022/06/01 11:22:17;;;;;;;7.78;2.95;;;21.10;11.60;;;;;;5052831;28;20857;-74
2022/06/01 11:24:46;;;;;;;3.95;2.80;;;21.00;11.50;;;;;;5053596;28;20893;-74
2022/06/01 11:27:27;;;;;;;5.72;2.83;;;20.80;12.80;;;;;;5040900;28;20403;-74
2022/06/01 11:30:05;;;;;;;7.68;3.08;;;20.40;13.00;;;;;;5052694;28;20431;-74
2022/06/01 11:32:58;;;;;;;3.42;2.40;;;20.40;12.60;;;;;;5034564;28;20414;-75
2022/06/01 11:35:41;;;;;;;3.65;2.20;;;20.70;11.70;;;;;;5054131;28;20388;-75
2022/06/01 11:38:19;;;;;;;3.85;2.50;;;20.70;11.40;;;;;;5037244;28;20395;-77
2022/06/01 11:41:10;;;;;;;3.88;2.63;;;21.00;10.80;;;;;;5047766;28;20409;-76
2022/06/01 11:43:41;;;;;;;4.53;2.30;;;21.00;10.70;;;;;;5046470;28;20449;-77
2022/06/01 11:46:21;;;;;;;3.78;2.50;;;20.60;11.10;;;;;;5055493;28;20464;-77
2022/06/01 11:48:52;;;;;;;3.80;2.53;;;20.20;11.00;;;;;;5053633;28;20403;-78
2022/06/01 11:51:21;;;;;;;4.45;2.50;;;19.80;12.50;;;;;;5054732;28;20476;-77
2022/06/01 11:54:05;;;;;;;10.40;2.80;;;19.60;12.10;;;;;;5053901;28;20574;-77
2022/06/01 11:57:00;;;;;;;5.07;2.47;;;19.60;13.30;;;;;;5053907;28;20471;-78
2022/06/01 11:59:29;;;;;;;4.38;2.55;;;19.50;13.00;;;;;;5054120;28;20391;-77
2022/06/01 12:01:58;;;;;;;7.90;3.13;;;19.60;14.40;;;;;;5048557;28;20488;-77
2022/06/01 12:04:36;;;;;;;6.47;3.40;;;19.20;15.40;;;;;;5036039;28;20447;-76
2022/06/01 12:07:32;;;;;;;5.88;3.50;;;19.20;16.00;;;;;;5054398;28;20432;-75
2022/06/01 12:10:20;;;;;;;5.15;3.00;;;19.00;15.50;;;;;;5038275;28;20432;-76
2022/06/01 12:13:22;;;;;;;5.70;3.00;;;19.20;15.10;;;;;;5053521;28;20802;-77
2022/06/01 12:16:18;;;;;;;7.20;3.10;;;19.10;16.40;;;;;;5050101;28;20436;-75
2022/06/01 12:19:31;;;;;;;6.20;2.80;;;19.20;15.40;;;;;;5037511;28;20411;-75
2022/06/01 12:22:01;;;;;;;5.55;2.45;;;19.60;15.30;;;;;;5012824;28;20391;-73
2022/06/01 12:30:06;;;;;;;4.70;2.17;;;20.20;11.60;;;;;;5049964;28;20400;-74
2022/06/01 12:32:58;;;;;;;4.50;2.00;;;20.70;11.10;;;;;;5056326;28;20404;-77
2022/06/01 12:35:27;;;;;;;1.90;1.70;;;20.90;9.70;;;;;;5056640;28;20484;-76
2022/06/01 12:38:00;;;;;;;2.40;1.40;;;20.80;9.50;;;;;;5042273;28;20394;-76
2022/06/01 12:40:27;;;;;;;8.80;2.23;;;20.50;9.30;;;;;;5063928;28;20390;-76
2022/06/01 12:43:02;;;;;;;8.00;2.60;;;20.40;9.90;;;;;;5060219;28;20385;-77
2022/06/01 12:45:39;;;;;;;7.95;2.10;;;20.10;11.00;;;;;;5062351;28;20392;-78
2022/06/01 12:48:19;;;;;;;4.03;2.10;;;19.70;10.80;;;;;;5044397;28;20466;-79
2022/06/01 12:50:50;;;;;;;9.10;2.60;;;19.20;12.10;;;;;;5036869;28;20401;-77
2022/06/01 12:53:40;;;;;;;5.38;2.85;;;18.20;17.20;;;;;;5057038;28;20397;-76
2022/06/01 12:56:27;;;;;;;9.02;4.00;;;17.20;19.80;;;;;;5041133;28;20389;-77
2022/06/01 12:58:55;;;;;;;3.47;2.80;;;17.50;20.50;;;;;;5042763;28;20393;-78
2022/06/01 13:01:27;;;;;;;4.55;3.00;;;16.60;22.00;;;;;;5041795;28;20405;-77
2022/06/01 13:03:57;;;;;;;4.05;3.10;;;16.20;23.20;;;;;;5057167;28;20389;-78
2022/06/01 13:06:25;;;;;;;3.97;3.10;;;16.10;24.50;;;;;;5040778;28;20396;-77
2022/06/01 13:09:06;;;;;;;3.03;2.83;;;16.10;25.20;;;;;;5039830;28;20398;-77
2022/06/01 13:11:33;;;;;;;4.60;3.50;;;15.60;26.10;;;;;;5056627;28;20416;-77
2022/06/01 13:14:02;;;;;;;5.28;4.20;;;15.50;28.30;;;;;;5055818;28;20413;-77
2022/06/01 13:16:37;;;;;;;6.55;4.40;;;15.50;29.10;;;;;;5055056;28;20414;-78
2022/06/01 13:19:35;;;;;;;7.70;4.78;;;15.30;31.90;;;;;;5053862;28;20386;-78
2022/06/01 13:22:10;;;;;;;6.23;5.63;;;15.00;33.20;;;;;;5010320;28;20817;-77
2022/06/01 13:24:49;;;;;;;6.53;5.93;;;15.00;33.40;;;;;;5044633;28;20404;-77
2022/06/01 13:27:15;;;;;;;9.25;6.05;;;14.90;35.30;;;;;;5069149;28;20413;-77
2022/06/01 13:29:44;;;;;;;12.18;6.70;;;15.10;37.30;;;;;;5058161;28;20390;-77
2022/06/01 13:32:12;;;;;;;7.40;6.70;;;15.30;37.90;;;;;;5055944;28;20389;-78
2022/06/01 13:34:48;;;;;;;7.25;6.00;;;15.50;36.40;;;;;;5041164;28;20394;-78
2022/06/01 13:37:19;;;;;;;7.10;6.40;;;15.50;33.80;;;;;;5043759;28;20795;-77